Thursday, May 5, 2016, 7:45 PM EDT
Back to Local

KMPO, Mt Pocono Pocono Mountains

Location: Pocono Summit, PA, United States Lat: 41.133
Local Time: 7:45 PM EDT (23:45 GMT) Lon: -75.383
Time Zone: US/Eastern Elev: 1915 ft

Show me the last for .
Show Coded

Time T Td Feel RH Dir Speed Gust Alt SLP Vis Weather Sky Remarks
2016-05-05 18:53 50 42 47 74 10° 7 - 29.65 29.67 10 OVC024 None
2016-05-05 17:53 50 42 48 74 360° 5 - 29.65 29.66 10 OVC023 None
2016-05-05 16:53 50 42 46 74 20° 10 - 29.64 29.66 10 OVC024 None
2016-05-05 15:53 50 43 46 76 360° 10 - 29.65 29.67 10 OVC020 None
2016-05-05 14:53 49 42 45 77 10° 8 - 29.66 29.68 10 OVC017 None
2016-05-05 13:53 50 42 46 74 350° 10 - 29.67 29.68 10 OVC019 6-hr Min Temp (2pm): 39.9°F
6-hr Max Temp (2pm): 50.0°F
2016-05-05 12:53 47 42 42 83 70° 12 - 29.68 29.70 10 OVC015 None
2016-05-05 12:40 47 42 42 83 40° 10 - 29.68 - 10 OVC015 None
2016-05-05 11:53 45 41 39 85 30° 12 - 29.70 29.72 10 OVC012 None
2016-05-05 10:53 45 41 39 85 40° 12 - 29.70 29.72 10 OVC011 None
2016-05-05 09:53 43 41 37 92 50° 12 - 29.70 29.72 10 OVC010 None
2016-05-05 09:18 42 40 33 91 50° 12 20 29.69 - 10 OVC009 None
2016-05-05 08:53 41 40 34 95 40° 12 - 29.69 29.71 10 OVC005 None
2016-05-05 08:08 40 39 33 96 40° 13 - 29.70 - 10 OVC005 None
2016-05-05 07:53 40 39 34 96 40° 8 - 29.70 29.73 10 OVC004 24-hr Precip Total (8am): 0.12"
6-hr Min Temp (8am): 39.0°F
6-hr Max Temp (8am): 39.9°F
2016-05-05 06:53 40 39 35 96 20° 7 - 29.67 29.70 8 BKN004 OVC014 None
2016-05-05 06:41 40 39 34 96 10° 8 - 29.67 - 9 BKN004 OVC014 None
2016-05-05 06:24 40 39 34 96 360° 9 - 29.67 - 10 SCT004 OVC016 None
2016-05-05 05:53 40 39 35 96 10° 7 - 29.68 29.70 10 OVC016 None
2016-05-05 05:34 39 39 34 100 10° 7 - 29.69 - 10 SCT002 OVC016 None
2016-05-05 04:53 39 39 33 100 50° 8 - 29.69 29.72 6 BR OVC002 None
2016-05-05 04:44 39 39 34 100 60° 7 - 29.69 - 3 BR OVC002 None
2016-05-05 04:39 39 39 34 100 80° 7 - 29.69 - 1 BR OVC002 None
2016-05-05 04:30 39 39 33 100 80° 8 - 29.69 - 2 BR OVC002 None
2016-05-05 03:53 39 39 33 100 80° 9 - 29.69 29.71 8 OVC002 None
2016-05-05 02:53 39 39 34 100 90° 7 - 29.70 29.73 10 OVC004 None
2016-05-05 02:24 39 39 33 100 80° 9 - 29.70 - 10 BKN006 OVC039 None
2016-05-05 02:01 39 39 32 100 70° 10 - 29.70 - 4 BR BKN002 BKN006 OVC042 None
2016-05-05 01:58 39 39 29 100 60° 10 20 29.70 - 1 BR BKN002 OVC042 None
2016-05-05 01:53 40 40 30 100 70° 13 20 29.70 29.73 0 FG VV002 6-hr Precip Total (2am): 0.00"
6-hr Min Temp (2am): 39.9°F
6-hr Max Temp (2am): 42.1°F
2016-05-05 01:32 40 40 34 100 80° 9 - 29.72 - 0 FG VV002 None
2016-05-05 01:22 40 40 33 100 80° 10 - 29.72 - 0 FG VV002 None
2016-05-05 01:06 40 40 34 100 70° 9 - 29.72 - 1 BR VV002 None
2016-05-05 00:53 40 40 36 100 90° 6 - 29.72 29.75 0 FG VV002 24-hr Min Temp (1am): 39.9°F
24-hr Max Temp (1am): 46.9°F
2016-05-05 00:07 40 40 34 100 70° 9 - 29.71 - 0 FG VV002 None
2016-05-04 23:53 40 40 34 100 70° 8 - 29.71 29.74 0 BR OVC002 None
2016-05-04 23:50 39 39 34 100 90° 7 - 29.71 - 1 BR OVC002 None
2016-05-04 23:39 40 40 34 100 80° 8 - 29.72 - 5 BR OVC002 None
2016-05-04 23:31 40 40 34 100 60° 8 - 29.71 - 2 BR OVC002 None
2016-05-04 23:26 41 41 36 100 70° 8 - 29.71 - 0 BR VV002 None
2016-05-04 23:16 41 41 36 100 60° 8 - 29.72 - 1 BR OVC002 None
2016-05-04 22:53 41 41 35 100 80° 10 - 29.72 29.75 6 BR OVC002 6-hr Precip Total (11pm): 0.00"
2016-05-04 22:51 41 41 34 100 80° 12 - 29.72 - 2 BR BKN002 OVC007 None
2016-05-04 22:16 41 41 35 100 80° 9 - 29.73 - 0 FG VV002 None
2016-05-04 22:02 41 41 36 100 70° 8 - 29.74 - 1 BR OVC002 None
2016-05-04 21:53 41 41 34 100 70° 13 - 29.74 29.76 3 BR OVC002 None
2016-05-04 20:53 42 42 37 100 90° 8 - 29.73 29.75 9 OVC004 1-hr Precip Total: Trace
2016-05-04 20:36 42 42 36 100 90° 10 - 29.73 - 3 -RA BR OVC002 1-hr Precip Total: Trace
2016-05-04 20:27 42 42 38 100 80° 7 - 29.73 - 1 BR OVC002 None
2016-05-04 20:00 42 42 37 100 90° 9 - 29.72 - 3 BR OVC002 None
2016-05-04 19:53 42 42 37 100 80° 8 - 29.72 29.74 1 BR OVC002 6-hr Precip Total (8pm): 0.01"
6-hr Min Temp (8pm): 42.1°F
6-hr Max Temp (8pm): 46.9°F
2016-05-04 19:48 43 43 37 100 90° 10 - 29.71 - 0 BR OVC002 None

Support USWX by starting your Amazon purchase here.